Terminal Aerodrome Forecast
Issued by NWS

Home | Current Version | Previous Version | Text Only | Print | Product List | Glossary On
Versions: 1 2 3 4 5 6 7 8 9 10 11 12 13 14 15
000
FTUS42 TJSJ 042337
TAFJPS
TAF
TJPS 042337Z 0500/0524 09008KT P6SM FEW030 SCT060
     FM050300 06004KT P6SM FEW030
     FM051500 13012KT P6SM SCT030 SCT050
     FM052230 09007KT P6SM FEW030 SCT070
      AMD NOT SKED TIL 050300=

USA.gov is the U.S. government's official web portal to all federal, state and local government web resources and services.